sensor_id;sensor_type;location;lat;lon;timestamp;P1;durP1;ratioP1;P2;durP2;ratioP2
13061;SDS011;6597;52.218;9.882;2023-07-29T00:01:27;9.35;;;2.38;;
13061;SDS011;6597;52.218;9.882;2023-07-29T00:03:53;5.72;;;1.77;;
13061;SDS011;6597;52.218;9.882;2023-07-29T00:06:20;12.82;;;2.95;;
13061;SDS011;6597;52.218;9.882;2023-07-29T00:08:46;8.13;;;2.03;;
13061;SDS011;6597;52.218;9.882;2023-07-29T00:11:13;7.20;;;2.00;;
13061;SDS011;6597;52.218;9.882;2023-07-29T00:13:39;13.27;;;2.55;;
13061;SDS011;6597;52.218;9.882;2023-07-29T00:16:06;7.45;;;2.50;;
13061;SDS011;6597;52.218;9.882;2023-07-29T00:18:34;3.03;;;1.52;;
13061;SDS011;6597;52.218;9.882;2023-07-29T00:21:00;3.97;;;1.80;;
13061;SDS011;6597;52.218;9.882;2023-07-29T00:23:27;6.95;;;2.17;;
13061;SDS011;6597;52.218;9.882;2023-07-29T00:25:53;8.90;;;2.22;;
13061;SDS011;6597;52.218;9.882;2023-07-29T00:28:20;10.18;;;2.38;;
13061;SDS011;6597;52.218;9.882;2023-07-29T00:30:47;9.15;;;2.08;;
13061;SDS011;6597;52.218;9.882;2023-07-29T00:33:13;4.68;;;1.63;;
13061;SDS011;6597;52.218;9.882;2023-07-29T00:35:41;9.48;;;2.35;;
13061;SDS011;6597;52.218;9.882;2023-07-29T00:38:07;7.78;;;2.13;;
13061;SDS011;6597;52.218;9.882;2023-07-29T00:40:35;7.75;;;2.17;;
13061;SDS011;6597;52.218;9.882;2023-07-29T00:43:02;11.13;;;3.53;;
13061;SDS011;6597;52.218;9.882;2023-07-29T00:45:29;10.05;;;2.42;;
13061;SDS011;6597;52.218;9.882;2023-07-29T00:47:56;9.85;;;2.47;;
13061;SDS011;6597;52.218;9.882;2023-07-29T00:50:23;9.70;;;2.45;;
13061;SDS011;6597;52.218;9.882;2023-07-29T00:52:52;13.85;;;3.50;;
13061;SDS011;6597;52.218;9.882;2023-07-29T00:55:18;4.05;;;1.70;;
13061;SDS011;6597;52.218;9.882;2023-07-29T00:57:45;9.48;;;2.15;;
13061;SDS011;6597;52.218;9.882;2023-07-29T01:00:13;6.95;;;2.15;;
13061;SDS011;6597;52.218;9.882;2023-07-29T01:02:41;7.20;;;2.25;;
13061;SDS011;6597;52.218;9.882;2023-07-29T01:05:08;12.93;;;3.20;;
13061;SDS011;6597;52.218;9.882;2023-07-29T01:07:39;6.97;;;2.05;;
13061;SDS011;6597;52.218;9.882;2023-07-29T01:10:16;7.13;;;2.08;;
13061;SDS011;6597;52.218;9.882;2023-07-29T01:12:54;14.85;;;4.05;;
13061;SDS011;6597;52.218;9.882;2023-07-29T01:15:26;8.90;;;2.58;;
13061;SDS011;6597;52.218;9.882;2023-07-29T01:17:59;7.60;;;2.03;;
13061;SDS011;6597;52.218;9.882;2023-07-29T01:20:40;11.93;;;2.88;;
13061;SDS011;6597;52.218;9.882;2023-07-29T01:23:10;5.32;;;1.80;;
13061;SDS011;6597;52.218;9.882;2023-07-29T01:25:38;6.88;;;2.08;;
13061;SDS011;6597;52.218;9.882;2023-07-29T01:28:04;5.97;;;1.90;;
13061;SDS011;6597;52.218;9.882;2023-07-29T01:30:33;5.82;;;2.40;;
13061;SDS011;6597;52.218;9.882;2023-07-29T01:33:07;8.45;;;2.13;;
13061;SDS011;6597;52.218;9.882;2023-07-29T01:35:40;6.68;;;2.00;;
13061;SDS011;6597;52.218;9.882;2023-07-29T01:38:12;6.25;;;1.85;;
13061;SDS011;6597;52.218;9.882;2023-07-29T01:40:44;8.77;;;2.10;;
13061;SDS011;6597;52.218;9.882;2023-07-29T01:43:11;2.33;;;1.45;;
13061;SDS011;6597;52.218;9.882;2023-07-29T01:45:39;3.53;;;1.60;;
13061;SDS011;6597;52.218;9.882;2023-07-29T01:48:06;2.50;;;1.35;;
13061;SDS011;6597;52.218;9.882;2023-07-29T01:50:33;4.95;;;1.98;;
13061;SDS011;6597;52.218;9.882;2023-07-29T01:53:00;11.02;;;2.90;;
13061;SDS011;6597;52.218;9.882;2023-07-29T01:55:26;9.48;;;2.42;;
13061;SDS011;6597;52.218;9.882;2023-07-29T01:57:54;9.50;;;3.05;;
13061;SDS011;6597;52.218;9.882;2023-07-29T02:00:22;8.77;;;2.80;;
13061;SDS011;6597;52.218;9.882;2023-07-29T02:02:49;9.45;;;3.35;;
13061;SDS011;6597;52.218;9.882;2023-07-29T02:05:15;10.68;;;2.53;;
13061;SDS011;6597;52.218;9.882;2023-07-29T02:07:42;1.85;;;1.27;;
13061;SDS011;6597;52.218;9.882;2023-07-29T02:10:08;9.88;;;2.03;;
13061;SDS011;6597;52.218;9.882;2023-07-29T02:12:35;6.25;;;2.00;;
13061;SDS011;6597;52.218;9.882;2023-07-29T02:15:03;11.77;;;2.80;;
13061;SDS011;6597;52.218;9.882;2023-07-29T02:17:30;11.23;;;3.03;;
13061;SDS011;6597;52.218;9.882;2023-07-29T02:19:57;15.23;;;3.42;;
13061;SDS011;6597;52.218;9.882;2023-07-29T02:22:24;14.00;;;3.03;;
13061;SDS011;6597;52.218;9.882;2023-07-29T02:24:50;8.77;;;2.63;;
13061;SDS011;6597;52.218;9.882;2023-07-29T02:27:17;11.85;;;2.50;;
13061;SDS011;6597;52.218;9.882;2023-07-29T02:29:43;16.98;;;3.97;;
13061;SDS011;6597;52.218;9.882;2023-07-29T02:32:11;1.30;;;1.20;;
13061;SDS011;6597;52.218;9.882;2023-07-29T02:34:38;9.77;;;2.40;;
13061;SDS011;6597;52.218;9.882;2023-07-29T02:37:05;9.25;;;2.28;;
13061;SDS011;6597;52.218;9.882;2023-07-29T02:39:31;9.90;;;2.42;;
13061;SDS011;6597;52.218;9.882;2023-07-29T02:41:58;6.53;;;1.70;;
13061;SDS011;6597;52.218;9.882;2023-07-29T02:44:25;14.77;;;3.40;;
13061;SDS011;6597;52.218;9.882;2023-07-29T02:46:51;9.85;;;2.00;;
13061;SDS011;6597;52.218;9.882;2023-07-29T02:49:21;7.78;;;1.73;;
13061;SDS011;6597;52.218;9.882;2023-07-29T02:51:48;10.18;;;2.22;;
13061;SDS011;6597;52.218;9.882;2023-07-29T02:54:14;12.27;;;2.35;;
13061;SDS011;6597;52.218;9.882;2023-07-29T02:56:41;5.95;;;1.67;;
13061;SDS011;6597;52.218;9.882;2023-07-29T02:59:08;8.10;;;2.00;;
13061;SDS011;6597;52.218;9.882;2023-07-29T03:01:34;14.30;;;2.90;;
13061;SDS011;6597;52.218;9.882;2023-07-29T03:04:01;8.07;;;1.85;;
13061;SDS011;6597;52.218;9.882;2023-07-29T03:06:29;6.93;;;1.80;;
13061;SDS011;6597;52.218;9.882;2023-07-29T03:08:55;9.82;;;1.92;;
13061;SDS011;6597;52.218;9.882;2023-07-29T03:11:22;7.00;;;1.80;;
13061;SDS011;6597;52.218;9.882;2023-07-29T03:13:48;7.22;;;1.70;;
13061;SDS011;6597;52.218;9.882;2023-07-29T03:16:15;7.20;;;1.90;;
13061;SDS011;6597;52.218;9.882;2023-07-29T03:18:53;9.43;;;1.90;;
13061;SDS011;6597;52.218;9.882;2023-07-29T03:21:20;7.65;;;1.90;;
13061;SDS011;6597;52.218;9.882;2023-07-29T03:23:47;1.38;;;0.95;;
13061;SDS011;6597;52.218;9.882;2023-07-29T03:26:14;9.18;;;1.63;;
13061;SDS011;6597;52.218;9.882;2023-07-29T03:28:41;9.77;;;1.90;;
13061;SDS011;6597;52.218;9.882;2023-07-29T03:31:08;8.48;;;1.75;;
13061;SDS011;6597;52.218;9.882;2023-07-29T03:33:36;13.48;;;2.38;;
13061;SDS011;6597;52.218;9.882;2023-07-29T03:36:03;16.30;;;2.65;;
13061;SDS011;6597;52.218;9.882;2023-07-29T03:38:30;10.73;;;2.13;;
13061;SDS011;6597;52.218;9.882;2023-07-29T03:40:59;8.98;;;1.95;;
13061;SDS011;6597;52.218;9.882;2023-07-29T03:43:27;8.65;;;2.10;;
13061;SDS011;6597;52.218;9.882;2023-07-29T03:45:55;8.38;;;1.90;;
13061;SDS011;6597;52.218;9.882;2023-07-29T03:48:22;17.05;;;3.47;;
13061;SDS011;6597;52.218;9.882;2023-07-29T03:50:48;9.07;;;1.92;;
13061;SDS011;6597;52.218;9.882;2023-07-29T03:53:15;10.52;;;2.05;;
13061;SDS011;6597;52.218;9.882;2023-07-29T03:55:42;10.88;;;1.98;;
13061;SDS011;6597;52.218;9.882;2023-07-29T03:58:10;6.57;;;1.67;;
13061;SDS011;6597;52.218;9.882;2023-07-29T04:00:36;10.57;;;1.90;;
13061;SDS011;6597;52.218;9.882;2023-07-29T04:03:03;13.77;;;2.67;;
13061;SDS011;6597;52.218;9.882;2023-07-29T04:05:30;10.13;;;2.30;;
13061;SDS011;6597;52.218;9.882;2023-07-29T04:07:57;11.43;;;2.75;;
13061;SDS011;6597;52.218;9.882;2023-07-29T04:10:23;8.93;;;2.15;;
13061;SDS011;6597;52.218;9.882;2023-07-29T04:12:50;24.33;;;4.05;;
13061;SDS011;6597;52.218;9.882;2023-07-29T04:15:18;14.63;;;2.50;;
13061;SDS011;6597;52.218;9.882;2023-07-29T04:17:44;9.15;;;2.25;;
13061;SDS011;6597;52.218;9.882;2023-07-29T04:20:11;7.20;;;1.90;;
13061;SDS011;6597;52.218;9.882;2023-07-29T04:22:37;9.00;;;1.95;;
13061;SDS011;6597;52.218;9.882;2023-07-29T04:25:04;22.80;;;4.05;;
13061;SDS011;6597;52.218;9.882;2023-07-29T04:27:32;9.70;;;2.15;;
13061;SDS011;6597;52.218;9.882;2023-07-29T04:29:58;38.78;;;6.15;;
13061;SDS011;6597;52.218;9.882;2023-07-29T04:32:26;9.38;;;2.05;;
13061;SDS011;6597;52.218;9.882;2023-07-29T04:34:53;9.80;;;1.90;;
13061;SDS011;6597;52.218;9.882;2023-07-29T04:37:19;10.80;;;2.15;;
13061;SDS011;6597;52.218;9.882;2023-07-29T04:39:46;6.00;;;1.73;;
13061;SDS011;6597;52.218;9.882;2023-07-29T04:42:12;11.10;;;2.10;;
13061;SDS011;6597;52.218;9.882;2023-07-29T04:44:39;8.25;;;1.73;;
13061;SDS011;6597;52.218;9.882;2023-07-29T04:47:08;15.73;;;2.72;;
13061;SDS011;6597;52.218;9.882;2023-07-29T04:49:38;11.27;;;2.13;;
13061;SDS011;6597;52.218;9.882;2023-07-29T04:52:05;2.88;;;1.55;;
13061;SDS011;6597;52.218;9.882;2023-07-29T04:54:32;11.07;;;2.10;;
13061;SDS011;6597;52.218;9.882;2023-07-29T04:56:58;11.38;;;2.10;;
13061;SDS011;6597;52.218;9.882;2023-07-29T04:59:26;13.40;;;2.53;;
13061;SDS011;6597;52.218;9.882;2023-07-29T05:01:53;18.27;;;2.50;;
13061;SDS011;6597;52.218;9.882;2023-07-29T05:04:19;12.10;;;1.70;;
13061;SDS011;6597;52.218;9.882;2023-07-29T05:06:48;12.57;;;2.35;;
13061;SDS011;6597;52.218;9.882;2023-07-29T05:09:16;11.52;;;2.17;;
13061;SDS011;6597;52.218;9.882;2023-07-29T05:11:43;9.05;;;1.85;;
13061;SDS011;6597;52.218;9.882;2023-07-29T05:14:10;10.45;;;1.95;;
13061;SDS011;6597;52.218;9.882;2023-07-29T05:16:37;9.32;;;1.95;;
13061;SDS011;6597;52.218;9.882;2023-07-29T05:19:04;10.85;;;2.10;;
13061;SDS011;6597;52.218;9.882;2023-07-29T05:21:30;14.85;;;2.47;;
13061;SDS011;6597;52.218;9.882;2023-07-29T05:23:58;12.77;;;2.30;;
13061;SDS011;6597;52.218;9.882;2023-07-29T05:26:25;19.67;;;3.50;;
13061;SDS011;6597;52.218;9.882;2023-07-29T05:28:52;10.52;;;2.15;;
13061;SDS011;6597;52.218;9.882;2023-07-29T05:31:18;11.82;;;3.42;;
13061;SDS011;6597;52.218;9.882;2023-07-29T05:33:45;3.00;;;1.50;;
13061;SDS011;6597;52.218;9.882;2023-07-29T05:36:12;6.80;;;2.33;;
13061;SDS011;6597;52.218;9.882;2023-07-29T05:38:38;7.65;;;2.40;;
13061;SDS011;6597;52.218;9.882;2023-07-29T05:41:06;3.90;;;2.00;;
13061;SDS011;6597;52.218;9.882;2023-07-29T05:43:33;6.57;;;2.10;;
13061;SDS011;6597;52.218;9.882;2023-07-29T05:45:59;3.25;;;1.95;;
13061;SDS011;6597;52.218;9.882;2023-07-29T05:48:27;5.03;;;1.83;;
13061;SDS011;6597;52.218;9.882;2023-07-29T05:50:53;7.00;;;2.00;;
13061;SDS011;6597;52.218;9.882;2023-07-29T05:53:20;2.70;;;1.50;;
13061;SDS011;6597;52.218;9.882;2023-07-29T05:55:46;4.35;;;1.98;;
13061;SDS011;6597;52.218;9.882;2023-07-29T05:58:14;7.50;;;3.10;;
13061;SDS011;6597;52.218;9.882;2023-07-29T06:00:41;5.93;;;2.13;;
13061;SDS011;6597;52.218;9.882;2023-07-29T06:03:07;9.82;;;2.40;;
13061;SDS011;6597;52.218;9.882;2023-07-29T06:05:34;4.40;;;1.77;;
13061;SDS011;6597;52.218;9.882;2023-07-29T06:08:02;6.88;;;2.03;;
13061;SDS011;6597;52.218;9.882;2023-07-29T06:10:29;5.72;;;2.33;;
13061;SDS011;6597;52.218;9.882;2023-07-29T06:12:56;6.45;;;3.03;;
13061;SDS011;6597;52.218;9.882;2023-07-29T06:15:23;10.20;;;2.75;;
13061;SDS011;6597;52.218;9.882;2023-07-29T06:17:50;5.38;;;1.80;;
13061;SDS011;6597;52.218;9.882;2023-07-29T06:20:17;5.55;;;2.10;;
13061;SDS011;6597;52.218;9.882;2023-07-29T06:22:43;2.85;;;1.73;;
13061;SDS011;6597;52.218;9.882;2023-07-29T06:25:10;5.03;;;2.22;;
13061;SDS011;6597;52.218;9.882;2023-07-29T06:27:37;4.88;;;2.00;;
13061;SDS011;6597;52.218;9.882;2023-07-29T06:30:04;7.47;;;3.35;;
13061;SDS011;6597;52.218;9.882;2023-07-29T06:32:33;6.22;;;2.25;;
13061;SDS011;6597;52.218;9.882;2023-07-29T06:35:00;5.45;;;2.03;;
13061;SDS011;6597;52.218;9.882;2023-07-29T06:37:27;8.98;;;2.50;;
13061;SDS011;6597;52.218;9.882;2023-07-29T06:39:53;6.55;;;2.30;;
13061;SDS011;6597;52.218;9.882;2023-07-29T06:42:20;8.55;;;2.78;;
13061;SDS011;6597;52.218;9.882;2023-07-29T06:44:46;7.35;;;2.28;;
13061;SDS011;6597;52.218;9.882;2023-07-29T06:47:13;7.55;;;2.33;;
13061;SDS011;6597;52.218;9.882;2023-07-29T06:49:41;7.03;;;2.30;;
13061;SDS011;6597;52.218;9.882;2023-07-29T06:52:07;5.90;;;2.13;;
13061;SDS011;6597;52.218;9.882;2023-07-29T06:54:34;5.05;;;2.13;;
13061;SDS011;6597;52.218;9.882;2023-07-29T06:57:00;8.93;;;2.42;;
13061;SDS011;6597;52.218;9.882;2023-07-29T06:59:27;4.97;;;2.10;;
13061;SDS011;6597;52.218;9.882;2023-07-29T07:01:53;2.03;;;1.17;;
13061;SDS011;6597;52.218;9.882;2023-07-29T07:04:20;9.52;;;2.72;;
13061;SDS011;6597;52.218;9.882;2023-07-29T07:06:47;5.10;;;1.88;;
13061;SDS011;6597;52.218;9.882;2023-07-29T07:09:14;10.23;;;2.50;;
13061;SDS011;6597;52.218;9.882;2023-07-29T07:11:40;13.68;;;3.45;;
13061;SDS011;6597;52.218;9.882;2023-07-29T07:14:07;13.27;;;2.15;;
13061;SDS011;6597;52.218;9.882;2023-07-29T07:16:33;8.63;;;2.25;;
13061;SDS011;6597;52.218;9.882;2023-07-29T07:19:02;8.45;;;2.28;;
13061;SDS011;6597;52.218;9.882;2023-07-29T07:21:28;5.40;;;1.85;;
13061;SDS011;6597;52.218;9.882;2023-07-29T07:23:56;9.63;;;1.95;;
13061;SDS011;6597;52.218;9.882;2023-07-29T07:26:23;6.20;;;1.70;;
13061;SDS011;6597;52.218;9.882;2023-07-29T07:28:49;5.75;;;1.35;;
13061;SDS011;6597;52.218;9.882;2023-07-29T07:31:16;4.32;;;1.42;;
13061;SDS011;6597;52.218;9.882;2023-07-29T07:33:43;9.20;;;1.67;;
13061;SDS011;6597;52.218;9.882;2023-07-29T07:36:10;6.30;;;1.70;;
13061;SDS011;6597;52.218;9.882;2023-07-29T07:38:37;8.27;;;1.75;;
13061;SDS011;6597;52.218;9.882;2023-07-29T07:41:04;1.85;;;1.08;;
13061;SDS011;6597;52.218;9.882;2023-07-29T07:43:31;6.15;;;1.63;;
13061;SDS011;6597;52.218;9.882;2023-07-29T07:45:58;5.22;;;1.60;;
13061;SDS011;6597;52.218;9.882;2023-07-29T07:48:25;6.20;;;1.77;;
13061;SDS011;6597;52.218;9.882;2023-07-29T07:50:52;5.78;;;1.50;;
13061;SDS011;6597;52.218;9.882;2023-07-29T07:53:19;6.95;;;1.23;;
13061;SDS011;6597;52.218;9.882;2023-07-29T07:55:46;5.35;;;1.63;;
13061;SDS011;6597;52.218;9.882;2023-07-29T07:58:14;5.32;;;1.55;;
13061;SDS011;6597;52.218;9.882;2023-07-29T08:00:40;4.75;;;1.60;;
13061;SDS011;6597;52.218;9.882;2023-07-29T08:03:07;5.15;;;1.48;;
13061;SDS011;6597;52.218;9.882;2023-07-29T08:05:33;5.20;;;1.52;;
13061;SDS011;6597;52.218;9.882;2023-07-29T08:08:00;4.75;;;1.42;;
13061;SDS011;6597;52.218;9.882;2023-07-29T08:10:26;4.65;;;1.55;;
13061;SDS011;6597;52.218;9.882;2023-07-29T08:12:53;6.63;;;2.42;;
13061;SDS011;6597;52.218;9.882;2023-07-29T08:15:21;8.25;;;2.63;;
13061;SDS011;6597;52.218;9.882;2023-07-29T08:17:47;9.02;;;2.05;;
13061;SDS011;6597;52.218;9.882;2023-07-29T08:20:14;8.02;;;2.10;;
13061;SDS011;6597;52.218;9.882;2023-07-29T08:22:40;6.57;;;1.55;;
13061;SDS011;6597;52.218;9.882;2023-07-29T08:25:07;3.28;;;1.50;;
13061;SDS011;6597;52.218;9.882;2023-07-29T08:27:34;5.60;;;1.60;;
13061;SDS011;6597;52.218;9.882;2023-07-29T08:30:01;14.93;;;4.30;;
13061;SDS011;6597;52.218;9.882;2023-07-29T08:32:28;11.38;;;2.30;;
13061;SDS011;6597;52.218;9.882;2023-07-29T08:34:55;6.85;;;1.73;;
13061;SDS011;6597;52.218;9.882;2023-07-29T08:37:22;6.00;;;1.77;;
13061;SDS011;6597;52.218;9.882;2023-07-29T08:39:48;21.15;;;5.55;;
13061;SDS011;6597;52.218;9.882;2023-07-29T08:42:15;9.70;;;4.07;;
13061;SDS011;6597;52.218;9.882;2023-07-29T08:44:45;5.85;;;1.75;;
13061;SDS011;6597;52.218;9.882;2023-07-29T08:47:14;4.93;;;2.05;;
13061;SDS011;6597;52.218;9.882;2023-07-29T08:49:43;7.78;;;2.75;;
13061;SDS011;6597;52.218;9.882;2023-07-29T08:52:10;6.72;;;2.20;;
13061;SDS011;6597;52.218;9.882;2023-07-29T08:54:38;6.28;;;2.15;;
13061;SDS011;6597;52.218;9.882;2023-07-29T08:57:05;9.18;;;3.10;;
13061;SDS011;6597;52.218;9.882;2023-07-29T08:59:32;6.53;;;2.25;;
13061;SDS011;6597;52.218;9.882;2023-07-29T09:01:59;4.88;;;1.77;;
13061;SDS011;6597;52.218;9.882;2023-07-29T09:04:26;4.40;;;1.77;;
13061;SDS011;6597;52.218;9.882;2023-07-29T09:06:55;10.27;;;2.55;;
13061;SDS011;6597;52.218;9.882;2023-07-29T09:09:22;5.88;;;1.92;;
13061;SDS011;6597;52.218;9.882;2023-07-29T09:11:49;7.72;;;2.38;;
13061;SDS011;6597;52.218;9.882;2023-07-29T09:14:15;6.03;;;2.10;;
13061;SDS011;6597;52.218;9.882;2023-07-29T09:16:42;7.13;;;2.20;;
13061;SDS011;6597;52.218;9.882;2023-07-29T09:19:09;7.60;;;2.42;;
13061;SDS011;6597;52.218;9.882;2023-07-29T09:21:38;5.88;;;1.92;;
13061;SDS011;6597;52.218;9.882;2023-07-29T09:24:06;8.20;;;2.40;;
13061;SDS011;6597;52.218;9.882;2023-07-29T09:26:33;5.75;;;2.15;;
13061;SDS011;6597;52.218;9.882;2023-07-29T09:29:00;6.47;;;2.28;;
13061;SDS011;6597;52.218;9.882;2023-07-29T09:31:27;3.85;;;1.80;;
13061;SDS011;6597;52.218;9.882;2023-07-29T09:33:55;7.13;;;2.72;;
13061;SDS011;6597;52.218;9.882;2023-07-29T09:36:23;7.00;;;2.60;;
13061;SDS011;6597;52.218;9.882;2023-07-29T09:38:52;7.97;;;2.63;;
13061;SDS011;6597;52.218;9.882;2023-07-29T09:41:21;9.40;;;2.47;;
13061;SDS011;6597;52.218;9.882;2023-07-29T09:43:48;10.57;;;3.00;;
13061;SDS011;6597;52.218;9.882;2023-07-29T09:46:22;7.82;;;3.10;;
13061;SDS011;6597;52.218;9.882;2023-07-29T09:48:49;7.15;;;2.92;;
13061;SDS011;6597;52.218;9.882;2023-07-29T09:51:19;52.10;;;7.72;;
13061;SDS011;6597;52.218;9.882;2023-07-29T09:53:46;7.93;;;3.28;;
13061;SDS011;6597;52.218;9.882;2023-07-29T09:56:14;7.45;;;2.95;;
13061;SDS011;6597;52.218;9.882;2023-07-29T09:58:43;13.80;;;4.65;;
13061;SDS011;6597;52.218;9.882;2023-07-29T10:01:10;12.90;;;5.22;;
13061;SDS011;6597;52.218;9.882;2023-07-29T10:03:37;8.68;;;4.95;;
13061;SDS011;6597;52.218;9.882;2023-07-29T10:06:05;16.63;;;5.05;;
13061;SDS011;6597;52.218;9.882;2023-07-29T10:08:32;13.82;;;6.10;;
13061;SDS011;6597;52.218;9.882;2023-07-29T10:11:01;12.57;;;5.85;;
13061;SDS011;6597;52.218;9.882;2023-07-29T10:13:28;16.10;;;7.95;;
13061;SDS011;6597;52.218;9.882;2023-07-29T10:15:56;12.45;;;5.72;;
13061;SDS011;6597;52.218;9.882;2023-07-29T10:18:23;13.50;;;6.07;;
13061;SDS011;6597;52.218;9.882;2023-07-29T10:20:51;9.95;;;5.75;;
13061;SDS011;6597;52.218;9.882;2023-07-29T10:23:18;6.75;;;4.70;;
13061;SDS011;6597;52.218;9.882;2023-07-29T10:25:50;13.32;;;5.53;;
13061;SDS011;6597;52.218;9.882;2023-07-29T10:28:20;8.75;;;5.10;;
13061;SDS011;6597;52.218;9.882;2023-07-29T10:30:51;9.57;;;5.25;;
13061;SDS011;6597;52.218;9.882;2023-07-29T10:33:19;10.55;;;4.97;;
13061;SDS011;6597;52.218;9.882;2023-07-29T10:35:46;7.35;;;4.15;;
13061;SDS011;6597;52.218;9.882;2023-07-29T10:38:13;8.77;;;4.75;;
13061;SDS011;6597;52.218;9.882;2023-07-29T10:40:44;9.90;;;4.60;;
13061;SDS011;6597;52.218;9.882;2023-07-29T10:43:12;8.35;;;3.60;;
13061;SDS011;6597;52.218;9.882;2023-07-29T10:45:44;7.90;;;4.03;;
13061;SDS011;6597;52.218;9.882;2023-07-29T10:48:11;6.22;;;3.80;;
13061;SDS011;6597;52.218;9.882;2023-07-29T10:50:39;6.05;;;3.78;;
13061;SDS011;6597;52.218;9.882;2023-07-29T10:53:05;9.20;;;5.07;;
13061;SDS011;6597;52.218;9.882;2023-07-29T10:55:33;7.28;;;4.10;;
13061;SDS011;6597;52.218;9.882;2023-07-29T10:58:08;6.95;;;4.03;;
13061;SDS011;6597;52.218;9.882;2023-07-29T11:00:38;10.52;;;4.22;;
13061;SDS011;6597;52.218;9.882;2023-07-29T11:03:05;5.63;;;4.22;;
13061;SDS011;6597;52.218;9.882;2023-07-29T11:05:43;6.35;;;3.97;;
13061;SDS011;6597;52.218;9.882;2023-07-29T11:08:18;4.90;;;3.53;;
13061;SDS011;6597;52.218;9.882;2023-07-29T11:10:59;3.83;;;2.92;;
13061;SDS011;6597;52.218;9.882;2023-07-29T11:13:29;3.92;;;3.00;;
13061;SDS011;6597;52.218;9.882;2023-07-29T11:15:56;3.17;;;2.88;;
13061;SDS011;6597;52.218;9.882;2023-07-29T11:18:25;4.10;;;3.13;;
13061;SDS011;6597;52.218;9.882;2023-07-29T11:20:55;6.85;;;3.22;;
13061;SDS011;6597;52.218;9.882;2023-07-29T11:23:28;3.10;;;2.75;;
13061;SDS011;6597;52.218;9.882;2023-07-29T11:25:56;3.28;;;2.80;;
13061;SDS011;6597;52.218;9.882;2023-07-29T11:28:23;3.53;;;2.70;;
13061;SDS011;6597;52.218;9.882;2023-07-29T11:30:50;3.67;;;2.45;;
13061;SDS011;6597;52.218;9.882;2023-07-29T11:33:17;3.38;;;2.67;;
13061;SDS011;6597;52.218;9.882;2023-07-29T11:35:45;4.43;;;2.95;;
13061;SDS011;6597;52.218;9.882;2023-07-29T11:38:15;4.55;;;2.75;;
13061;SDS011;6597;52.218;9.882;2023-07-29T11:40:43;5.38;;;3.03;;
13061;SDS011;6597;52.218;9.882;2023-07-29T11:43:21;4.47;;;2.33;;
13061;SDS011;6597;52.218;9.882;2023-07-29T11:45:48;9.15;;;3.03;;
13061;SDS011;6597;52.218;9.882;2023-07-29T11:48:14;8.68;;;2.83;;
13061;SDS011;6597;52.218;9.882;2023-07-29T11:50:41;8.20;;;2.42;;
13061;SDS011;6597;52.218;9.882;2023-07-29T11:53:08;5.97;;;1.65;;
13061;SDS011;6597;52.218;9.882;2023-07-29T11:55:36;2.25;;;1.65;;
13061;SDS011;6597;52.218;9.882;2023-07-29T11:58:03;4.25;;;2.00;;
13061;SDS011;6597;52.218;9.882;2023-07-29T12:00:31;2.35;;;1.70;;
13061;SDS011;6597;52.218;9.882;2023-07-29T12:02:57;9.10;;;2.50;;
13061;SDS011;6597;52.218;9.882;2023-07-29T12:05:24;4.32;;;1.75;;
13061;SDS011;6597;52.218;9.882;2023-07-29T12:07:51;1.85;;;1.13;;
13061;SDS011;6597;52.218;9.882;2023-07-29T12:10:18;5.55;;;1.70;;
13061;SDS011;6597;52.218;9.882;2023-07-29T12:12:47;3.45;;;1.50;;
13061;SDS011;6597;52.218;9.882;2023-07-29T12:15:22;5.85;;;1.73;;
13061;SDS011;6597;52.218;9.882;2023-07-29T12:17:51;1.15;;;0.98;;
13061;SDS011;6597;52.218;9.882;2023-07-29T12:20:20;3.50;;;1.63;;
13061;SDS011;6597;52.218;9.882;2023-07-29T12:22:51;3.65;;;1.70;;
13061;SDS011;6597;52.218;9.882;2023-07-29T12:25:18;1.80;;;1.08;;
13061;SDS011;6597;52.218;9.882;2023-07-29T12:27:45;3.78;;;1.60;;
13061;SDS011;6597;52.218;9.882;2023-07-29T12:30:12;1.00;;;0.73;;
13061;SDS011;6597;52.218;9.882;2023-07-29T12:32:42;3.63;;;1.60;;
13061;SDS011;6597;52.218;9.882;2023-07-29T12:35:10;4.07;;;1.83;;
13061;SDS011;6597;52.218;9.882;2023-07-29T12:37:36;2.03;;;1.10;;
13061;SDS011;6597;52.218;9.882;2023-07-29T12:40:04;3.20;;;1.30;;
13061;SDS011;6597;52.218;9.882;2023-07-29T12:42:31;2.95;;;1.33;;
13061;SDS011;6597;52.218;9.882;2023-07-29T12:44:58;1.95;;;1.08;;
13061;SDS011;6597;52.218;9.882;2023-07-29T12:47:26;4.07;;;1.48;;
13061;SDS011;6597;52.218;9.882;2023-07-29T12:49:52;5.18;;;1.98;;
13061;SDS011;6597;52.218;9.882;2023-07-29T12:52:19;5.57;;;1.20;;
13061;SDS011;6597;52.218;9.882;2023-07-29T12:54:45;1.30;;;0.88;;
13061;SDS011;6597;52.218;9.882;2023-07-29T12:57:12;4.57;;;1.55;;
13061;SDS011;6597;52.218;9.882;2023-07-29T12:59:38;3.03;;;1.30;;
13061;SDS011;6597;52.218;9.882;2023-07-29T13:02:05;3.53;;;1.48;;
13061;SDS011;6597;52.218;9.882;2023-07-29T13:04:33;3.97;;;1.48;;
13061;SDS011;6597;52.218;9.882;2023-07-29T13:06:59;4.38;;;1.50;;
13061;SDS011;6597;52.218;9.882;2023-07-29T13:09:26;3.03;;;1.33;;
13061;SDS011;6597;52.218;9.882;2023-07-29T13:11:53;3.15;;;1.23;;
13061;SDS011;6597;52.218;9.882;2023-07-29T13:14:19;3.53;;;1.50;;
13061;SDS011;6597;52.218;9.882;2023-07-29T13:16:46;3.63;;;1.58;;
13061;SDS011;6597;52.218;9.882;2023-07-29T13:19:12;1.15;;;0.85;;
13061;SDS011;6597;52.218;9.882;2023-07-29T13:21:40;4.25;;;1.55;;
13061;SDS011;6597;52.218;9.882;2023-07-29T13:24:07;3.55;;;1.52;;
13061;SDS011;6597;52.218;9.882;2023-07-29T13:26:33;2.90;;;1.35;;
13061;SDS011;6597;52.218;9.882;2023-07-29T13:29:00;2.58;;;1.17;;
13061;SDS011;6597;52.218;9.882;2023-07-29T13:31:27;2.53;;;1.30;;
13061;SDS011;6597;52.218;9.882;2023-07-29T13:33:53;2.63;;;1.15;;
13061;SDS011;6597;52.218;9.882;2023-07-29T13:36:20;3.70;;;1.40;;
13061;SDS011;6597;52.218;9.882;2023-07-29T13:38:48;3.70;;;1.50;;
13061;SDS011;6597;52.218;9.882;2023-07-29T13:41:14;4.00;;;1.50;;
13061;SDS011;6597;52.218;9.882;2023-07-29T13:43:41;2.28;;;1.17;;
13061;SDS011;6597;52.218;9.882;2023-07-29T13:46:07;3.85;;;1.50;;
13061;SDS011;6597;52.218;9.882;2023-07-29T13:48:34;3.03;;;1.10;;
13061;SDS011;6597;52.218;9.882;2023-07-29T13:51:00;5.93;;;1.95;;
13061;SDS011;6597;52.218;9.882;2023-07-29T13:53:27;3.60;;;1.30;;
13061;SDS011;6597;52.218;9.882;2023-07-29T13:55:55;3.88;;;1.33;;
13061;SDS011;6597;52.218;9.882;2023-07-29T13:58:22;3.05;;;1.48;;
13061;SDS011;6597;52.218;9.882;2023-07-29T14:00:48;2.72;;;1.30;;
13061;SDS011;6597;52.218;9.882;2023-07-29T14:03:15;3.20;;;1.20;;
13061;SDS011;6597;52.218;9.882;2023-07-29T14:05:41;3.38;;;1.40;;
13061;SDS011;6597;52.218;9.882;2023-07-29T14:08:08;4.10;;;1.58;;
13061;SDS011;6597;52.218;9.882;2023-07-29T14:10:34;2.75;;;1.25;;
13061;SDS011;6597;52.218;9.882;2023-07-29T14:13:02;2.45;;;1.45;;
13061;SDS011;6597;52.218;9.882;2023-07-29T14:15:29;6.47;;;3.13;;
13061;SDS011;6597;52.218;9.882;2023-07-29T14:17:57;3.80;;;1.70;;
13061;SDS011;6597;52.218;9.882;2023-07-29T14:20:24;17.58;;;8.70;;
13061;SDS011;6597;52.218;9.882;2023-07-29T14:22:50;6.18;;;3.45;;
13061;SDS011;6597;52.218;9.882;2023-07-29T14:25:17;3.65;;;1.52;;
13061;SDS011;6597;52.218;9.882;2023-07-29T14:27:44;3.33;;;1.38;;
13061;SDS011;6597;52.218;9.882;2023-07-29T14:30:12;3.67;;;1.40;;
13061;SDS011;6597;52.218;9.882;2023-07-29T14:32:38;4.63;;;1.50;;
13061;SDS011;6597;52.218;9.882;2023-07-29T14:35:05;2.95;;;1.20;;
13061;SDS011;6597;52.218;9.882;2023-07-29T14:37:33;3.30;;;1.58;;
13061;SDS011;6597;52.218;9.882;2023-07-29T14:39:59;3.60;;;1.70;;
13061;SDS011;6597;52.218;9.882;2023-07-29T14:42:26;5.55;;;1.63;;
13061;SDS011;6597;52.218;9.882;2023-07-29T14:44:53;2.08;;;1.20;;
13061;SDS011;6597;52.218;9.882;2023-07-29T14:47:21;4.47;;;1.60;;
13061;SDS011;6597;52.218;9.882;2023-07-29T14:49:48;3.55;;;1.55;;
13061;SDS011;6597;52.218;9.882;2023-07-29T14:52:14;1.30;;;0.90;;
13061;SDS011;6597;52.218;9.882;2023-07-29T14:54:41;3.42;;;1.67;;
13061;SDS011;6597;52.218;9.882;2023-07-29T14:57:09;3.70;;;1.70;;
13061;SDS011;6597;52.218;9.882;2023-07-29T14:59:36;3.55;;;1.80;;